sensor_id;sensor_type;location;lat;lon;timestamp;P1;durP1;ratioP1;P2;durP2;ratioP2
7166;SDS011;3625;51.762;14.320;2023-05-02T00:01:16;5.70;;;4.50;;
7166;SDS011;3625;51.762;14.320;2023-05-02T00:03:46;4.85;;;4.35;;
7166;SDS011;3625;51.762;14.320;2023-05-02T00:06:15;5.63;;;4.57;;
7166;SDS011;3625;51.762;14.320;2023-05-02T00:08:44;4.83;;;4.20;;
7166;SDS011;3625;51.762;14.320;2023-05-02T00:11:15;4.17;;;3.77;;
7166;SDS011;3625;51.762;14.320;2023-05-02T00:13:43;4.00;;;3.60;;
7166;SDS011;3625;51.762;14.320;2023-05-02T00:16:12;4.50;;;4.10;;
7166;SDS011;3625;51.762;14.320;2023-05-02T00:18:41;4.53;;;4.13;;
7166;SDS011;3625;51.762;14.320;2023-05-02T00:21:13;4.67;;;4.27;;
7166;SDS011;3625;51.762;14.320;2023-05-02T00:23:41;5.27;;;4.60;;
7166;SDS011;3625;51.762;14.320;2023-05-02T00:26:10;4.50;;;4.10;;
7166;SDS011;3625;51.762;14.320;2023-05-02T00:28:41;5.20;;;4.70;;
7166;SDS011;3625;51.762;14.320;2023-05-02T00:31:09;4.60;;;4.20;;
7166;SDS011;3625;51.762;14.320;2023-05-02T00:33:38;5.03;;;4.53;;
7166;SDS011;3625;51.762;14.320;2023-05-02T00:36:13;5.43;;;4.37;;
7166;SDS011;3625;51.762;14.320;2023-05-02T00:38:42;6.68;;;4.38;;
7166;SDS011;3625;51.762;14.320;2023-05-02T00:41:12;5.10;;;4.70;;
7166;SDS011;3625;51.762;14.320;2023-05-02T00:43:40;4.90;;;4.27;;
7166;SDS011;3625;51.762;14.320;2023-05-02T00:46:09;4.67;;;4.07;;
7166;SDS011;3625;51.762;14.320;2023-05-02T00:48:39;4.23;;;3.83;;
7166;SDS011;3625;51.762;14.320;2023-05-02T00:51:07;5.13;;;4.63;;
7166;SDS011;3625;51.762;14.320;2023-05-02T00:53:40;4.63;;;4.23;;
7166;SDS011;3625;51.762;14.320;2023-05-02T00:56:08;6.33;;;4.73;;
7166;SDS011;3625;51.762;14.320;2023-05-02T00:58:37;5.57;;;5.07;;
7166;SDS011;3625;51.762;14.320;2023-05-02T01:01:10;6.03;;;5.23;;
7166;SDS011;3625;51.762;14.320;2023-05-02T01:03:54;5.97;;;5.47;;
7166;SDS011;3625;51.762;14.320;2023-05-02T01:06:35;6.53;;;5.17;;
7166;SDS011;3625;51.762;14.320;2023-05-02T01:09:23;6.70;;;4.60;;
7166;SDS011;3625;51.762;14.320;2023-05-02T01:12:01;5.40;;;4.70;;
7166;SDS011;3625;51.762;14.320;2023-05-02T01:14:39;5.20;;;4.70;;
7166;SDS011;3625;51.762;14.320;2023-05-02T01:17:10;5.63;;;4.77;;
7166;SDS011;3625;51.762;14.320;2023-05-02T01:19:42;5.27;;;4.60;;
7166;SDS011;3625;51.762;14.320;2023-05-02T01:22:16;5.90;;;5.00;;
7166;SDS011;3625;51.762;14.320;2023-05-02T01:24:50;5.00;;;4.50;;
7166;SDS011;3625;51.762;14.320;2023-05-02T01:27:38;7.20;;;5.13;;
7166;SDS011;3625;51.762;14.320;2023-05-02T01:30:16;5.43;;;4.93;;
7166;SDS011;3625;51.762;14.320;2023-05-02T01:32:47;6.87;;;5.00;;
7166;SDS011;3625;51.762;14.320;2023-05-02T01:35:18;6.27;;;5.03;;
7166;SDS011;3625;51.762;14.320;2023-05-02T01:37:49;5.93;;;5.13;;
7166;SDS011;3625;51.762;14.320;2023-05-02T01:40:19;6.90;;;5.17;;
7166;SDS011;3625;51.762;14.320;2023-05-02T01:42:51;6.10;;;5.50;;
7166;SDS011;3625;51.762;14.320;2023-05-02T01:45:22;7.87;;;5.13;;
7166;SDS011;3625;51.762;14.320;2023-05-02T01:47:53;5.63;;;5.07;;
7166;SDS011;3625;51.762;14.320;2023-05-02T01:50:23;6.13;;;5.23;;
7166;SDS011;3625;51.762;14.320;2023-05-02T01:52:53;6.00;;;5.13;;
7166;SDS011;3625;51.762;14.320;2023-05-02T01:55:24;5.70;;;4.77;;
7166;SDS011;3625;51.762;14.320;2023-05-02T01:57:55;5.23;;;4.73;;
7166;SDS011;3625;51.762;14.320;2023-05-02T02:00:25;6.80;;;5.30;;
7166;SDS011;3625;51.762;14.320;2023-05-02T02:02:55;6.63;;;5.30;;
7166;SDS011;3625;51.762;14.320;2023-05-02T02:05:26;6.03;;;5.40;;
7166;SDS011;3625;51.762;14.320;2023-05-02T02:07:56;6.27;;;5.67;;
7166;SDS011;3625;51.762;14.320;2023-05-02T02:10:25;5.67;;;5.03;;
7166;SDS011;3625;51.762;14.320;2023-05-02T02:12:59;6.57;;;5.80;;
7166;SDS011;3625;51.762;14.320;2023-05-02T02:15:41;7.10;;;6.07;;
7166;SDS011;3625;51.762;14.320;2023-05-02T02:18:17;6.33;;;5.53;;
7166;SDS011;3625;51.762;14.320;2023-05-02T02:20:50;6.30;;;5.60;;
7166;SDS011;3625;51.762;14.320;2023-05-02T02:23:22;6.77;;;5.57;;
7166;SDS011;3625;51.762;14.320;2023-05-02T02:25:56;10.07;;;5.40;;
7166;SDS011;3625;51.762;14.320;2023-05-02T02:28:25;7.17;;;6.07;;
7166;SDS011;3625;51.762;14.320;2023-05-02T02:30:55;6.70;;;6.00;;
7166;SDS011;3625;51.762;14.320;2023-05-02T02:33:24;6.97;;;5.77;;
7166;SDS011;3625;51.762;14.320;2023-05-02T02:35:57;8.87;;;6.10;;
7166;SDS011;3625;51.762;14.320;2023-05-02T02:38:37;6.87;;;6.17;;
7166;SDS011;3625;51.762;14.320;2023-05-02T02:41:13;7.50;;;6.20;;
7166;SDS011;3625;51.762;14.320;2023-05-02T02:43:52;6.10;;;5.50;;
7166;SDS011;3625;51.762;14.320;2023-05-02T02:46:33;6.90;;;6.20;;
7166;SDS011;3625;51.762;14.320;2023-05-02T02:49:19;9.90;;;6.00;;
7166;SDS011;3625;51.762;14.320;2023-05-02T02:51:57;8.33;;;6.00;;
7166;SDS011;3625;51.762;14.320;2023-05-02T02:54:38;7.50;;;6.00;;
7166;SDS011;3625;51.762;14.320;2023-05-02T02:57:17;6.60;;;5.90;;
7166;SDS011;3625;51.762;14.320;2023-05-02T02:59:57;6.73;;;5.97;;
7166;SDS011;3625;51.762;14.320;2023-05-02T03:02:31;8.20;;;6.80;;
7166;SDS011;3625;51.762;14.320;2023-05-02T03:05:03;7.23;;;6.50;;
7166;SDS011;3625;51.762;14.320;2023-05-02T03:07:34;6.77;;;6.00;;
7166;SDS011;3625;51.762;14.320;2023-05-02T03:10:03;7.43;;;6.73;;
7166;SDS011;3625;51.762;14.320;2023-05-02T03:12:34;6.93;;;6.27;;
7166;SDS011;3625;51.762;14.320;2023-05-02T03:15:08;7.50;;;6.40;;
7166;SDS011;3625;51.762;14.320;2023-05-02T03:17:59;7.00;;;6.30;;
7166;SDS011;3625;51.762;14.320;2023-05-02T03:20:28;8.10;;;6.50;;
7166;SDS011;3625;51.762;14.320;2023-05-02T03:23:04;7.17;;;6.47;;
7166;SDS011;3625;51.762;14.320;2023-05-02T03:25:33;7.07;;;6.37;;
7166;SDS011;3625;51.762;14.320;2023-05-02T03:28:02;6.43;;;5.93;;
7166;SDS011;3625;51.762;14.320;2023-05-02T03:30:32;8.97;;;6.90;;
7166;SDS011;3625;51.762;14.320;2023-05-02T03:33:02;9.37;;;7.30;;
7166;SDS011;3625;51.762;14.320;2023-05-02T03:35:35;7.53;;;6.83;;
7166;SDS011;3625;51.762;14.320;2023-05-02T03:38:03;7.70;;;6.73;;
7166;SDS011;3625;51.762;14.320;2023-05-02T03:40:34;7.60;;;6.83;;
7166;SDS011;3625;51.762;14.320;2023-05-02T03:43:07;7.83;;;7.07;;
7166;SDS011;3625;51.762;14.320;2023-05-02T03:45:37;7.30;;;6.70;;
7166;SDS011;3625;51.762;14.320;2023-05-02T03:48:07;7.70;;;6.90;;
7166;SDS011;3625;51.762;14.320;2023-05-02T03:50:36;7.50;;;6.77;;
7166;SDS011;3625;51.762;14.320;2023-05-02T03:53:05;10.07;;;6.83;;
7166;SDS011;3625;51.762;14.320;2023-05-02T03:55:44;7.60;;;6.87;;
7166;SDS011;3625;51.762;14.320;2023-05-02T03:58:21;7.90;;;7.13;;
7166;SDS011;3625;51.762;14.320;2023-05-02T04:00:51;9.17;;;8.17;;
7166;SDS011;3625;51.762;14.320;2023-05-02T04:03:22;8.27;;;7.27;;
7166;SDS011;3625;51.762;14.320;2023-05-02T04:05:56;9.30;;;8.03;;
7166;SDS011;3625;51.762;14.320;2023-05-02T04:08:25;8.60;;;7.80;;
7166;SDS011;3625;51.762;14.320;2023-05-02T04:10:55;9.10;;;8.20;;
7166;SDS011;3625;51.762;14.320;2023-05-02T04:13:27;9.17;;;7.77;;
7166;SDS011;3625;51.762;14.320;2023-05-02T04:15:56;7.70;;;7.00;;
7166;SDS011;3625;51.762;14.320;2023-05-02T04:18:30;10.50;;;7.70;;
7166;SDS011;3625;51.762;14.320;2023-05-02T04:21:01;8.00;;;7.17;;
7166;SDS011;3625;51.762;14.320;2023-05-02T04:23:31;9.40;;;8.10;;
7166;SDS011;3625;51.762;14.320;2023-05-02T04:26:02;8.97;;;8.07;;
7166;SDS011;3625;51.762;14.320;2023-05-02T04:28:47;9.87;;;8.00;;
7166;SDS011;3625;51.762;14.320;2023-05-02T04:31:16;9.50;;;7.30;;
7166;SDS011;3625;51.762;14.320;2023-05-02T04:33:47;7.63;;;6.83;;
7166;SDS011;3625;51.762;14.320;2023-05-02T04:36:20;9.33;;;7.47;;
7166;SDS011;3625;51.762;14.320;2023-05-02T04:38:49;9.60;;;8.30;;
7166;SDS011;3625;51.762;14.320;2023-05-02T04:41:19;8.47;;;7.57;;
7166;SDS011;3625;51.762;14.320;2023-05-02T04:43:55;9.03;;;8.13;;
7166;SDS011;3625;51.762;14.320;2023-05-02T04:46:27;8.37;;;7.57;;
7166;SDS011;3625;51.762;14.320;2023-05-02T04:48:57;9.33;;;6.83;;
7166;SDS011;3625;51.762;14.320;2023-05-02T04:51:27;8.57;;;6.50;;
7166;SDS011;3625;51.762;14.320;2023-05-02T04:53:58;9.50;;;8.03;;
7166;SDS011;3625;51.762;14.320;2023-05-02T04:56:27;8.50;;;6.97;;
7166;SDS011;3625;51.762;14.320;2023-05-02T04:58:55;7.50;;;6.80;;
7166;SDS011;3625;51.762;14.320;2023-05-02T05:01:24;9.10;;;8.10;;
7166;SDS011;3625;51.762;14.320;2023-05-02T05:03:57;8.00;;;7.20;;
7166;SDS011;3625;51.762;14.320;2023-05-02T05:06:28;9.00;;;7.30;;
7166;SDS011;3625;51.762;14.320;2023-05-02T05:08:59;11.40;;;9.20;;
7166;SDS011;3625;51.762;14.320;2023-05-02T05:11:29;11.07;;;9.47;;
7166;SDS011;3625;51.762;14.320;2023-05-02T05:13:58;12.77;;;10.50;;
7166;SDS011;3625;51.762;14.320;2023-05-02T05:16:34;10.30;;;8.60;;
7166;SDS011;3625;51.762;14.320;2023-05-02T05:19:05;7.60;;;6.70;;
7166;SDS011;3625;51.762;14.320;2023-05-02T05:21:34;6.93;;;6.10;;
7166;SDS011;3625;51.762;14.320;2023-05-02T05:24:04;6.13;;;5.23;;
7166;SDS011;3625;51.762;14.320;2023-05-02T05:26:35;8.63;;;5.87;;
7166;SDS011;3625;51.762;14.320;2023-05-02T05:29:07;5.80;;;4.90;;
7166;SDS011;3625;51.762;14.320;2023-05-02T05:31:39;7.82;;;6.07;;
7166;SDS011;3625;51.762;14.320;2023-05-02T05:34:12;7.68;;;5.50;;
7166;SDS011;3625;51.762;14.320;2023-05-02T05:36:42;6.43;;;4.80;;
7166;SDS011;3625;51.762;14.320;2023-05-02T05:39:11;5.75;;;5.20;;
7166;SDS011;3625;51.762;14.320;2023-05-02T05:41:42;7.27;;;5.13;;
7166;SDS011;3625;51.762;14.320;2023-05-02T05:44:12;9.03;;;5.60;;
7166;SDS011;3625;51.762;14.320;2023-05-02T05:46:42;5.57;;;4.90;;
7166;SDS011;3625;51.762;14.320;2023-05-02T05:49:14;7.17;;;5.00;;
7166;SDS011;3625;51.762;14.320;2023-05-02T05:51:44;8.57;;;5.37;;
7166;SDS011;3625;51.762;14.320;2023-05-02T05:54:15;7.80;;;4.50;;
7166;SDS011;3625;51.762;14.320;2023-05-02T05:56:44;7.17;;;4.70;;
7166;SDS011;3625;51.762;14.320;2023-05-02T05:59:16;5.82;;;4.45;;
7166;SDS011;3625;51.762;14.320;2023-05-02T06:01:46;6.20;;;4.57;;
7166;SDS011;3625;51.762;14.320;2023-05-02T06:04:19;6.03;;;4.60;;
7166;SDS011;3625;51.762;14.320;2023-05-02T06:06:50;5.53;;;4.90;;
7166;SDS011;3625;51.762;14.320;2023-05-02T06:09:20;5.53;;;4.50;;
7166;SDS011;3625;51.762;14.320;2023-05-02T06:11:48;7.33;;;4.27;;
7166;SDS011;3625;51.762;14.320;2023-05-02T06:14:17;5.83;;;4.67;;
7166;SDS011;3625;51.762;14.320;2023-05-02T06:16:47;5.80;;;4.30;;
7166;SDS011;3625;51.762;14.320;2023-05-02T06:19:16;5.93;;;4.37;;
7166;SDS011;3625;51.762;14.320;2023-05-02T06:21:46;4.90;;;4.40;;
7166;SDS011;3625;51.762;14.320;2023-05-02T06:24:15;4.50;;;4.10;;
7166;SDS011;3625;51.762;14.320;2023-05-02T06:26:44;5.43;;;4.20;;
7166;SDS011;3625;51.762;14.320;2023-05-02T06:29:13;7.10;;;4.53;;
7166;SDS011;3625;51.762;14.320;2023-05-02T06:31:41;6.00;;;4.27;;
7166;SDS011;3625;51.762;14.320;2023-05-02T06:34:10;4.40;;;3.90;;
7166;SDS011;3625;51.762;14.320;2023-05-02T06:36:39;5.70;;;4.07;;
7166;SDS011;3625;51.762;14.320;2023-05-02T06:39:09;4.70;;;4.20;;
7166;SDS011;3625;51.762;14.320;2023-05-02T06:41:38;5.50;;;3.80;;
7166;SDS011;3625;51.762;14.320;2023-05-02T06:44:14;5.87;;;4.10;;
7166;SDS011;3625;51.762;14.320;2023-05-02T06:46:43;5.13;;;3.55;;
7166;SDS011;3625;51.762;14.320;2023-05-02T06:49:11;4.97;;;4.03;;
7166;SDS011;3625;51.762;14.320;2023-05-02T06:51:40;6.47;;;4.27;;
7166;SDS011;3625;51.762;14.320;2023-05-02T06:54:10;4.60;;;3.67;;
7166;SDS011;3625;51.762;14.320;2023-05-02T06:56:40;6.25;;;4.10;;
7166;SDS011;3625;51.762;14.320;2023-05-02T06:59:09;4.40;;;3.63;;
7166;SDS011;3625;51.762;14.320;2023-05-02T07:01:38;5.65;;;3.97;;
7166;SDS011;3625;51.762;14.320;2023-05-02T07:04:07;3.55;;;3.20;;
7166;SDS011;3625;51.762;14.320;2023-05-02T07:06:36;4.18;;;3.50;;
7166;SDS011;3625;51.762;14.320;2023-05-02T07:09:04;4.13;;;3.72;;
7166;SDS011;3625;51.762;14.320;2023-05-02T07:11:34;4.18;;;3.58;;
7166;SDS011;3625;51.762;14.320;2023-05-02T07:14:03;5.25;;;3.60;;
7166;SDS011;3625;51.762;14.320;2023-05-02T07:16:32;4.07;;;3.38;;
7166;SDS011;3625;51.762;14.320;2023-05-02T07:19:01;5.10;;;4.28;;
7166;SDS011;3625;51.762;14.320;2023-05-02T07:21:32;5.10;;;3.88;;
7166;SDS011;3625;51.762;14.320;2023-05-02T07:24:00;5.07;;;3.78;;
7166;SDS011;3625;51.762;14.320;2023-05-02T07:26:29;5.13;;;4.18;;
7166;SDS011;3625;51.762;14.320;2023-05-02T07:28:59;5.20;;;4.07;;
7166;SDS011;3625;51.762;14.320;2023-05-02T07:31:30;4.65;;;4.13;;
7166;SDS011;3625;51.762;14.320;2023-05-02T07:33:58;4.57;;;4.13;;
7166;SDS011;3625;51.762;14.320;2023-05-02T07:36:27;4.38;;;3.88;;
7166;SDS011;3625;51.762;14.320;2023-05-02T07:38:56;4.10;;;3.80;;
7166;SDS011;3625;51.762;14.320;2023-05-02T07:41:25;5.53;;;4.30;;
7166;SDS011;3625;51.762;14.320;2023-05-02T07:43:54;4.85;;;3.67;;
7166;SDS011;3625;51.762;14.320;2023-05-02T07:46:25;6.05;;;3.70;;
7166;SDS011;3625;51.762;14.320;2023-05-02T07:48:53;3.63;;;3.33;;
7166;SDS011;3625;51.762;14.320;2023-05-02T07:51:22;5.85;;;4.28;;
7166;SDS011;3625;51.762;14.320;2023-05-02T07:53:52;5.07;;;3.90;;
7166;SDS011;3625;51.762;14.320;2023-05-02T07:56:24;5.18;;;4.00;;
7166;SDS011;3625;51.762;14.320;2023-05-02T07:58:52;5.72;;;3.80;;
7166;SDS011;3625;51.762;14.320;2023-05-02T08:01:21;6.05;;;4.15;;
7166;SDS011;3625;51.762;14.320;2023-05-02T08:03:51;4.53;;;4.13;;
7166;SDS011;3625;51.762;14.320;2023-05-02T08:06:20;4.57;;;3.90;;
7166;SDS011;3625;51.762;14.320;2023-05-02T08:08:49;4.40;;;4.00;;
7166;SDS011;3625;51.762;14.320;2023-05-02T08:11:18;4.20;;;3.35;;
7166;SDS011;3625;51.762;14.320;2023-05-02T08:13:49;7.57;;;3.92;;
7166;SDS011;3625;51.762;14.320;2023-05-02T08:16:18;5.78;;;4.13;;
7166;SDS011;3625;51.762;14.320;2023-05-02T08:18:47;5.53;;;4.10;;
7166;SDS011;3625;51.762;14.320;2023-05-02T08:21:17;6.15;;;4.20;;
7166;SDS011;3625;51.762;14.320;2023-05-02T08:23:46;4.18;;;3.78;;
7166;SDS011;3625;51.762;14.320;2023-05-02T08:26:15;5.25;;;4.43;;
7166;SDS011;3625;51.762;14.320;2023-05-02T08:28:44;5.35;;;4.03;;
7166;SDS011;3625;51.762;14.320;2023-05-02T08:31:13;6.63;;;4.20;;
7166;SDS011;3625;51.762;14.320;2023-05-02T08:33:42;4.57;;;4.07;;
7166;SDS011;3625;51.762;14.320;2023-05-02T08:36:11;4.75;;;4.35;;
7166;SDS011;3625;51.762;14.320;2023-05-02T08:38:42;6.07;;;4.53;;
7166;SDS011;3625;51.762;14.320;2023-05-02T08:41:11;6.03;;;4.45;;
7166;SDS011;3625;51.762;14.320;2023-05-02T08:43:42;8.80;;;5.20;;
7166;SDS011;3625;51.762;14.320;2023-05-02T08:46:11;6.15;;;4.85;;
7166;SDS011;3625;51.762;14.320;2023-05-02T08:48:43;8.60;;;5.22;;
7166;SDS011;3625;51.762;14.320;2023-05-02T08:51:14;6.60;;;5.22;;
7166;SDS011;3625;51.762;14.320;2023-05-02T08:53:46;7.43;;;5.90;;
7166;SDS011;3625;51.762;14.320;2023-05-02T08:56:15;7.22;;;6.53;;
7166;SDS011;3625;51.762;14.320;2023-05-02T08:58:44;7.53;;;5.60;;
7166;SDS011;3625;51.762;14.320;2023-05-02T09:01:13;7.35;;;4.82;;
7166;SDS011;3625;51.762;14.320;2023-05-02T09:03:43;10.60;;;5.75;;
7166;SDS011;3625;51.762;14.320;2023-05-02T09:06:14;5.88;;;4.78;;
7166;SDS011;3625;51.762;14.320;2023-05-02T09:08:45;6.50;;;5.70;;
7166;SDS011;3625;51.762;14.320;2023-05-02T09:11:17;7.57;;;5.70;;
7166;SDS011;3625;51.762;14.320;2023-05-02T09:13:47;6.60;;;5.22;;
7166;SDS011;3625;51.762;14.320;2023-05-02T09:16:18;6.43;;;5.55;;
7166;SDS011;3625;51.762;14.320;2023-05-02T09:18:48;7.15;;;5.68;;
7166;SDS011;3625;51.762;14.320;2023-05-02T09:21:19;6.45;;;5.70;;
7166;SDS011;3625;51.762;14.320;2023-05-02T09:23:51;5.68;;;5.13;;
7166;SDS011;3625;51.762;14.320;2023-05-02T09:26:22;8.35;;;6.07;;
7166;SDS011;3625;51.762;14.320;2023-05-02T09:28:56;7.45;;;5.30;;
7166;SDS011;3625;51.762;14.320;2023-05-02T09:31:27;8.07;;;6.53;;
7166;SDS011;3625;51.762;14.320;2023-05-02T09:34:07;6.65;;;5.53;;
7166;SDS011;3625;51.762;14.320;2023-05-02T09:36:38;8.23;;;6.25;;
7166;SDS011;3625;51.762;14.320;2023-05-02T09:39:09;7.22;;;5.70;;
7166;SDS011;3625;51.762;14.320;2023-05-02T09:41:39;6.93;;;5.50;;
7166;SDS011;3625;51.762;14.320;2023-05-02T09:44:09;6.90;;;5.90;;
7166;SDS011;3625;51.762;14.320;2023-05-02T09:46:39;6.20;;;5.45;;
7166;SDS011;3625;51.762;14.320;2023-05-02T09:49:08;6.53;;;5.75;;
7166;SDS011;3625;51.762;14.320;2023-05-02T09:51:37;8.40;;;6.50;;
7166;SDS011;3625;51.762;14.320;2023-05-02T09:54:06;12.05;;;6.40;;
7166;SDS011;3625;51.762;14.320;2023-05-02T09:56:51;8.25;;;6.47;;
7166;SDS011;3625;51.762;14.320;2023-05-02T09:59:22;6.97;;;5.57;;
7166;SDS011;3625;51.762;14.320;2023-05-02T10:01:55;6.25;;;5.65;;
7166;SDS011;3625;51.762;14.320;2023-05-02T10:04:24;6.60;;;5.40;;
7166;SDS011;3625;51.762;14.320;2023-05-02T10:06:54;6.78;;;5.75;;
7166;SDS011;3625;51.762;14.320;2023-05-02T10:09:25;6.82;;;5.65;;
7166;SDS011;3625;51.762;14.320;2023-05-02T10:11:59;6.03;;;5.43;;
7166;SDS011;3625;51.762;14.320;2023-05-02T10:14:30;6.85;;;5.22;;
7166;SDS011;3625;51.762;14.320;2023-05-02T10:17:08;5.80;;;5.18;;
7166;SDS011;3625;51.762;14.320;2023-05-02T10:19:43;6.55;;;5.15;;
7166;SDS011;3625;51.762;14.320;2023-05-02T10:22:20;5.60;;;5.07;;
7166;SDS011;3625;51.762;14.320;2023-05-02T10:24:52;7.82;;;5.47;;
7166;SDS011;3625;51.762;14.320;2023-05-02T10:27:21;6.32;;;5.00;;
7166;SDS011;3625;51.762;14.320;2023-05-02T10:29:50;5.45;;;4.93;;
7166;SDS011;3625;51.762;14.320;2023-05-02T10:32:20;7.32;;;5.35;;
7166;SDS011;3625;51.762;14.320;2023-05-02T10:34:51;6.38;;;5.38;;
7166;SDS011;3625;51.762;14.320;2023-05-02T10:37:21;5.28;;;4.78;;
7166;SDS011;3625;51.762;14.320;2023-05-02T10:39:52;5.60;;;5.10;;
7166;SDS011;3625;51.762;14.320;2023-05-02T10:42:21;7.43;;;5.40;;
7166;SDS011;3625;51.762;14.320;2023-05-02T10:44:51;5.85;;;5.28;;
7166;SDS011;3625;51.762;14.320;2023-05-02T10:47:20;7.30;;;5.53;;
7166;SDS011;3625;51.762;14.320;2023-05-02T10:49:50;7.15;;;5.20;;
7166;SDS011;3625;51.762;14.320;2023-05-02T10:52:27;6.07;;;5.22;;
7166;SDS011;3625;51.762;14.320;2023-05-02T10:55:13;6.13;;;4.88;;
7166;SDS011;3625;51.762;14.320;2023-05-02T11:00:47;6.00;;;4.97;;
7166;SDS011;3625;51.762;14.320;2023-05-02T11:06:19;5.22;;;4.72;;
7166;SDS011;3625;51.762;14.320;2023-05-02T11:08:48;5.82;;;5.00;;
7166;SDS011;3625;51.762;14.320;2023-05-02T11:14:10;6.80;;;5.32;;
7166;SDS011;3625;51.762;14.320;2023-05-02T11:17:08;6.63;;;5.88;;
7166;SDS011;3625;51.762;14.320;2023-05-02T11:22:52;6.30;;;5.57;;
7166;SDS011;3625;51.762;14.320;2023-05-02T11:25:39;5.93;;;5.32;;
7166;SDS011;3625;51.762;14.320;2023-05-02T11:31:08;6.20;;;5.03;;
7166;SDS011;3625;51.762;14.320;2023-05-02T11:33:55;6.85;;;5.25;;
7166;SDS011;3625;51.762;14.320;2023-05-02T11:36:28;6.90;;;5.57;;
7166;SDS011;3625;51.762;14.320;2023-05-02T11:38:59;6.50;;;5.70;;
7166;SDS011;3625;51.762;14.320;2023-05-02T11:41:37;7.47;;;5.57;;
7166;SDS011;3625;51.762;14.320;2023-05-02T11:44:08;6.75;;;5.22;;
7166;SDS011;3625;51.762;14.320;2023-05-02T11:46:36;5.85;;;5.25;;
7166;SDS011;3625;51.762;14.320;2023-05-02T11:49:06;5.60;;;4.90;;
7166;SDS011;3625;51.762;14.320;2023-05-02T11:51:40;6.20;;;4.75;;
7166;SDS011;3625;51.762;14.320;2023-05-02T11:54:16;5.43;;;4.78;;
7166;SDS011;3625;51.762;14.320;2023-05-02T11:56:46;6.05;;;4.60;;
7166;SDS011;3625;51.762;14.320;2023-05-02T11:59:16;5.35;;;4.82;;
7166;SDS011;3625;51.762;14.320;2023-05-02T12:01:48;6.40;;;4.55;;
7166;SDS011;3625;51.762;14.320;2023-05-02T12:04:19;6.82;;;4.07;;
7166;SDS011;3625;51.762;14.320;2023-05-02T12:06:55;5.93;;;4.65;;
7166;SDS011;3625;51.762;14.320;2023-05-02T12:09:24;4.90;;;4.40;;
7166;SDS011;3625;51.762;14.320;2023-05-02T12:11:53;5.47;;;4.55;;
7166;SDS011;3625;51.762;14.320;2023-05-02T12:14:27;7.18;;;4.70;;
7166;SDS011;3625;51.762;14.320;2023-05-02T12:16:59;6.20;;;4.82;;
7166;SDS011;3625;51.762;14.320;2023-05-02T12:19:29;5.30;;;4.80;;
7166;SDS011;3625;51.762;14.320;2023-05-02T12:21:58;6.13;;;4.40;;
7166;SDS011;3625;51.762;14.320;2023-05-02T12:24:27;5.38;;;4.40;;
7166;SDS011;3625;51.762;14.320;2023-05-02T12:27:09;6.60;;;4.75;;
7166;SDS011;3625;51.762;14.320;2023-05-02T12:29:40;5.75;;;4.47;;
7166;SDS011;3625;51.762;14.320;2023-05-02T12:32:10;6.40;;;4.90;;
7166;SDS011;3625;51.762;14.320;2023-05-02T12:34:40;4.43;;;4.03;;
7166;SDS011;3625;51.762;14.320;2023-05-02T12:37:09;5.88;;;4.70;;
7166;SDS011;3625;51.762;14.320;2023-05-02T12:39:38;4.65;;;4.25;;
7166;SDS011;3625;51.762;14.320;2023-05-02T12:42:08;4.78;;;4.38;;
7166;SDS011;3625;51.762;14.320;2023-05-02T12:44:38;5.13;;;4.65;;
7166;SDS011;3625;51.762;14.320;2023-05-02T12:47:10;4.63;;;4.03;;
7166;SDS011;3625;51.762;14.320;2023-05-02T12:49:47;3.60;;;3.30;;
7166;SDS011;3625;51.762;14.320;2023-05-02T12:52:16;4.47;;;3.60;;
7166;SDS011;3625;51.762;14.320;2023-05-02T12:54:46;3.90;;;3.30;;
7166;SDS011;3625;51.762;14.320;2023-05-02T12:57:22;4.05;;;3.50;;
7166;SDS011;3625;51.762;14.320;2023-05-02T12:59:52;3.40;;;2.97;;
7166;SDS011;3625;51.762;14.320;2023-05-02T13:02:21;4.45;;;3.58;;
7166;SDS011;3625;51.762;14.320;2023-05-02T13:04:51;4.38;;;3.63;;
7166;SDS011;3625;51.762;14.320;2023-05-02T13:07:20;4.72;;;3.45;;
7166;SDS011;3625;51.762;14.320;2023-05-02T13:09:49;3.72;;;3.28;;
7166;SDS011;3625;51.762;14.320;2023-05-02T13:12:17;4.65;;;3.72;;
7166;SDS011;3625;51.762;14.320;2023-05-02T13:14:46;3.58;;;3.28;;
7166;SDS011;3625;51.762;14.320;2023-05-02T13:17:17;3.60;;;3.30;;
7166;SDS011;3625;51.762;14.320;2023-05-02T13:19:47;3.45;;;3.05;;
7166;SDS011;3625;51.762;14.320;2023-05-02T13:22:27;3.67;;;3.30;;
7166;SDS011;3625;51.762;14.320;2023-05-02T13:24:56;3.25;;;2.95;;
7166;SDS011;3625;51.762;14.320;2023-05-02T13:27:24;2.78;;;2.58;;
7166;SDS011;3625;51.762;14.320;2023-05-02T13:29:53;3.20;;;2.90;;
7166;SDS011;3625;51.762;14.320;2023-05-02T13:32:23;5.30;;;3.38;;
7166;SDS011;3625;51.762;14.320;2023-05-02T13:34:52;3.80;;;2.92;;
7166;SDS011;3625;51.762;14.320;2023-05-02T13:37:21;2.90;;;2.70;;
7166;SDS011;3625;51.762;14.320;2023-05-02T13:39:50;3.75;;;2.80;;
7166;SDS011;3625;51.762;14.320;2023-05-02T13:42:18;3.63;;;2.90;;
7166;SDS011;3625;51.762;14.320;2023-05-02T13:44:47;3.78;;;3.22;;
7166;SDS011;3625;51.762;14.320;2023-05-02T13:47:16;4.15;;;2.80;;
7166;SDS011;3625;51.762;14.320;2023-05-02T13:49:50;3.35;;;2.92;;
7166;SDS011;3625;51.762;14.320;2023-05-02T13:52:18;4.22;;;3.00;;
7166;SDS011;3625;51.762;14.320;2023-05-02T13:54:47;3.50;;;2.92;;
7166;SDS011;3625;51.762;14.320;2023-05-02T13:57:16;3.17;;;2.97;;
7166;SDS011;3625;51.762;14.320;2023-05-02T13:59:45;3.30;;;2.50;;
7166;SDS011;3625;51.762;14.320;2023-05-02T14:02:13;3.47;;;2.95;;
7166;SDS011;3625;51.762;14.320;2023-05-02T14:04:42;4.63;;;2.88;;
7166;SDS011;3625;51.762;14.320;2023-05-02T14:07:12;3.17;;;2.88;;
7166;SDS011;3625;51.762;14.320;2023-05-02T14:09:41;3.17;;;2.60;;
7166;SDS011;3625;51.762;14.320;2023-05-02T14:12:10;2.88;;;2.67;;
7166;SDS011;3625;51.762;14.320;2023-05-02T14:14:39;3.95;;;2.50;;
7166;SDS011;3625;51.762;14.320;2023-05-02T14:17:09;3.15;;;2.85;;
7166;SDS011;3625;51.762;14.320;2023-05-02T14:19:38;2.70;;;2.50;;
7166;SDS011;3625;51.762;14.320;2023-05-02T14:22:07;3.53;;;2.65;;
7166;SDS011;3625;51.762;14.320;2023-05-02T14:24:37;3.17;;;2.88;;
7166;SDS011;3625;51.762;14.320;2023-05-02T14:27:06;3.13;;;2.83;;
7166;SDS011;3625;51.762;14.320;2023-05-02T14:29:43;4.47;;;3.00;;
7166;SDS011;3625;51.762;14.320;2023-05-02T14:32:12;3.58;;;3.28;;
7166;SDS011;3625;51.762;14.320;2023-05-02T14:34:43;3.03;;;2.75;;
7166;SDS011;3625;51.762;14.320;2023-05-02T14:37:12;3.00;;;2.70;;
7166;SDS011;3625;51.762;14.320;2023-05-02T14:39:43;4.07;;;2.67;;
7166;SDS011;3625;51.762;14.320;2023-05-02T14:42:17;3.15;;;2.85;;
7166;SDS011;3625;51.762;14.320;2023-05-02T14:44:46;4.40;;;3.33;;
7166;SDS011;3625;51.762;14.320;2023-05-02T14:47:15;5.22;;;3.63;;
7166;SDS011;3625;51.762;14.320;2023-05-02T14:49:44;3.30;;;2.85;;
7166;SDS011;3625;51.762;14.320;2023-05-02T14:52:14;6.45;;;4.25;;
7166;SDS011;3625;51.762;14.320;2023-05-02T14:54:44;3.97;;;3.03;;
7166;SDS011;3625;51.762;14.320;2023-05-02T14:57:15;5.80;;;3.17;;
7166;SDS011;3625;51.762;14.320;2023-05-02T14:59:44;3.40;;;3.10;;
7166;SDS011;3625;51.762;14.320;2023-05-02T15:02:12;4.10;;;3.70;;
7166;SDS011;3625;51.762;14.320;2023-05-02T15:04:41;4.00;;;3.30;;
7166;SDS011;3625;51.762;14.320;2023-05-02T15:07:10;5.20;;;3.45;;
7166;SDS011;3625;51.762;14.320;2023-05-02T15:09:41;3.67;;;3.38;;
7166;SDS011;3625;51.762;14.320;2023-05-02T15:12:11;3.53;;;3.20;;
7166;SDS011;3625;51.762;14.320;2023-05-02T15:14:40;4.70;;;3.65;;
7166;SDS011;3625;51.762;14.320;2023-05-02T15:17:09;6.22;;;3.40;;
7166;SDS011;3625;51.762;14.320;2023-05-02T15:19:38;4.60;;;3.55;;
7166;SDS011;3625;51.762;14.320;2023-05-02T15:22:07;4.75;;;3.30;;
7166;SDS011;3625;51.762;14.320;2023-05-02T15:24:36;3.38;;;3.08;;
7166;SDS011;3625;51.762;14.320;2023-05-02T15:27:06;3.50;;;3.20;;
7166;SDS011;3625;51.762;14.320;2023-05-02T15:29:35;3.08;;;2.70;;
7166;SDS011;3625;51.762;14.320;2023-05-02T15:32:04;6.07;;;3.58;;
7166;SDS011;3625;51.762;14.320;2023-05-02T15:34:33;5.53;;;3.22;;
7166;SDS011;3625;51.762;14.320;2023-05-02T15:37:02;5.80;;;3.53;;
7166;SDS011;3625;51.762;14.320;2023-05-02T15:39:31;3.95;;;2.95;;